Time;durP1;ratioP1;P1;durP2;ratioP2;P2;SDS_P1;SDS_P2;PMS_P1;PMS_P2;Temp;Humidity;BMP_temperature;BMP_pressure;BME280_temperature;BME280_humidity;BME280_pressure;Samples;Min_cycle;Max_cycle;Signal;HPM_P1;HPM_P2
2022/12/16 00:02:11;;;;;;;;;25.00;15.00;;;;;0.51;64.13;100718.56;5053654;28;60780;-77
2022/12/16 00:04:36;;;;;;;;;23.00;17.50;;;;;0.42;64.40;100719.28;5054513;28;45356;-78
2022/12/16 00:07:01;;;;;;;;;29.75;20.50;;;;;0.35;64.46;100720.06;5055928;28;68812;-77
2022/12/16 00:09:27;;;;;;;;;21.50;17.00;;;;;0.33;64.39;100721.72;5054255;28;52903;-78
2022/12/16 00:11:52;;;;;;;;;23.00;18.00;;;;;0.34;64.95;100720.91;5053555;28;66254;-76
2022/12/16 00:14:17;;;;;;;;;23.25;16.00;;;;;0.33;64.78;100727.69;5054023;28;45405;-77
2022/12/16 00:16:43;;;;;;;;;17.25;11.50;;;;;0.30;65.17;100724.28;5054703;28;45316;-77
2022/12/16 00:19:08;;;;;;;;;19.50;16.50;;;;;0.28;65.13;100731.94;5054961;28;45365;-78
2022/12/16 00:21:33;;;;;;;;;22.25;17.50;;;;;0.29;65.01;100732.78;5054240;28;64889;-78
2022/12/16 00:23:59;;;;;;;;;23.00;18.25;;;;;0.29;65.20;100735.34;5037058;28;45881;-78
2022/12/16 00:26:24;;;;;;;;;29.75;16.00;;;;;0.22;65.49;100739.50;5036906;28;45372;-78
2022/12/16 00:28:50;;;;;;;;;33.75;20.25;;;;;0.17;65.33;100741.19;5039378;28;45323;-77
2022/12/16 00:31:15;;;;;;;;;24.75;14.50;;;;;0.13;65.36;100740.25;5057896;28;60830;-78
2022/12/16 00:33:41;;;;;;;;;22.75;17.50;;;;;0.11;65.35;100741.06;5057449;28;69148;-78
2022/12/16 00:36:07;;;;;;;;;26.50;18.75;;;;;0.10;65.58;100742.78;5058345;28;45259;-77
2022/12/16 00:38:32;;;;;;;;;25.00;14.50;;;;;0.11;65.19;100743.63;5058353;28;45298;-77
2022/12/16 00:40:57;;;;;;;;;30.50;20.50;;;;;0.10;65.68;100744.47;5057381;28;63606;-78
2022/12/16 00:43:23;;;;;;;;;34.25;26.00;;;;;0.02;65.14;100734.16;5039583;28;46120;-78
2022/12/16 00:45:48;;;;;;;;;26.75;18.50;;;;;-0.01;66.02;100737.50;5039577;28;45369;-77
2022/12/16 00:48:14;;;;;;;;;24.25;20.50;;;;;-0.05;65.67;100745.13;5040321;28;45374;-77
2022/12/16 00:50:40;;;;;;;;;29.50;22.75;;;;;-0.05;65.92;100742.56;5070381;28;45309;-78
2022/12/16 00:53:05;;;;;;;;;32.50;19.75;;;;;-0.07;66.15;100744.25;5077981;28;47411;-77
2022/12/16 00:55:31;;;;;;;;;23.75;19.25;;;;;-0.11;65.61;100750.13;5078032;28;45410;-78
2022/12/16 00:57:57;;;;;;;;;30.25;22.00;;;;;-0.18;65.77;100749.19;5094063;27;63553;-77
2022/12/16 01:00:22;;;;;;;;;29.75;21.25;;;;;-0.24;65.82;100749.97;5080554;27;45368;-78
2022/12/16 01:02:48;;;;;;;;;24.25;21.00;;;;;-0.28;66.20;100758.44;5098441;27;50670;-77
2022/12/16 01:05:16;;;;;;;;;28.00;20.25;;;;;-0.30;66.28;100760.06;5098581;27;45298;-77
2022/12/16 01:07:41;;;;;;;;;24.25;22.00;;;;;-0.36;66.36;100769.38;5080428;27;45382;-77
2022/12/16 01:10:08;;;;;;;;;35.25;23.00;;;;;-0.43;66.71;100766.72;5080284;27;45319;-77
2022/12/16 01:12:34;;;;;;;;;23.25;17.00;;;;;-0.41;66.73;100774.41;5098025;27;46362;-77
2022/12/16 01:14:59;;;;;;;;;22.25;19.00;;;;;-0.38;66.45;100776.16;5080140;27;45563;-77
2022/12/16 01:17:25;;;;;;;;;18.75;14.00;;;;;-0.37;66.69;100776.19;5098673;27;45421;-77
2022/12/16 01:19:51;;;;;;;;;29.25;19.50;;;;;-0.34;67.01;100777.94;5098487;27;45359;-77
2022/12/16 01:22:17;;;;;;;;;27.25;23.00;;;;;-0.29;67.08;100784.84;5080081;27;46373;-77
2022/12/16 01:24:43;;;;;;;;;32.00;21.75;;;;;-0.34;66.91;100783.03;5079683;27;45413;-77
2022/12/16 01:27:09;;;;;;;;;32.75;17.50;;;;;-0.30;66.71;100792.47;5080001;27;45381;-77
2022/12/16 01:29:34;;;;;;;;;33.25;22.50;;;;;-0.34;67.26;100790.72;5080154;27;45393;-77
2022/12/16 01:31:59;;;;;;;;;24.25;17.00;;;;;-0.36;67.49;100803.47;5097284;27;70744;-77
2022/12/16 01:34:25;;;;;;;;;25.00;19.00;;;;;-0.36;67.37;100800.06;5097469;27;61989;-77
2022/12/16 01:36:50;;;;;;;;;30.50;22.75;;;;;-0.40;67.73;100817.06;5097507;27;59563;-77
2022/12/16 01:39:16;;;;;;;;;35.25;25.00;;;;;-0.41;67.59;100817.88;5096349;27;58272;-77
2022/12/16 01:41:41;;;;;;;;;32.00;21.50;;;;;-0.41;67.39;100828.09;5088104;27;45459;-77
2022/12/16 01:44:21;;;;;;;;;31.75;20.50;;;;;-0.41;67.67;100826.44;5076769;28;62909;-77
2022/12/16 01:46:54;;;;;;;;;30.75;21.50;;;;;-0.44;67.46;100825.50;5077728;28;45430;-77
2022/12/16 01:49:35;;;;;;;;;30.25;22.00;;;;;-0.46;67.37;100830.59;5060399;27;45432;-77
2022/12/16 01:52:03;;;;;;;;;35.25;25.50;;;;;-0.45;67.70;100826.34;5098013;27;45416;-78
2022/12/16 01:54:36;;;;;;;;;37.25;27.00;;;;;-0.47;67.56;100835.69;5079074;27;45912;-77
2022/12/16 01:57:06;;;;;;;;;27.50;23.50;;;;;-0.49;67.75;100838.19;5079429;27;45382;-78
2022/12/16 01:59:33;;;;;;;;;34.50;27.00;;;;;-0.52;67.48;100840.72;5079463;27;45513;-77
2022/12/16 02:01:58;;;;;;;;;28.50;21.75;;;;;-0.57;67.08;100847.44;5078832;27;66604;-77
2022/12/16 02:04:24;;;;;;;;;27.50;24.50;;;;;-0.64;67.61;100845.59;5097650;27;45391;-77
2022/12/16 02:06:49;;;;;;;;;24.25;22.50;;;;;-0.66;67.36;100852.38;5078510;27;63460;-78
2022/12/16 02:09:16;;;;;;;;;35.25;23.00;;;;;-0.69;67.67;100857.44;5078055;27;68734;-77
2022/12/16 02:11:41;;;;;;;;;29.25;23.00;;;;;-0.73;67.79;100855.66;5079401;27;46356;-77
2022/12/16 02:14:33;;;;;;;;;31.67;25.00;;;;;-0.75;67.56;100858.19;5097635;27;45292;-77
2022/12/16 02:17:11;;;;;;;;;36.25;25.00;;;;;-0.77;67.48;100849.63;5079202;27;45419;-77
2022/12/16 02:20:06;;;;;;;;;32.25;25.50;;;;;-0.84;67.80;100846.06;5079266;27;45492;-76
2022/12/16 02:22:50;;;;;;;;;28.25;23.50;;;;;-0.89;68.12;100841.69;5097242;27;46411;-77
2022/12/16 02:25:19;;;;;;;;;37.50;27.25;;;;;-0.91;68.17;100851.03;5079223;27;45755;-77
2022/12/16 02:27:53;;;;;;;;;34.75;21.25;;;;;-0.93;67.83;100839.94;5097398;27;45694;-78
2022/12/16 02:30:31;;;;;;;;;25.50;18.50;;;;;-0.96;68.03;100843.28;5079421;27;45524;-77
2022/12/16 02:33:22;;;;;;;;;27.75;21.75;;;;;-1.01;68.31;100845.75;5078903;27;47597;-77
2022/12/16 02:36:12;;;;;;;;;29.75;18.50;;;;;-1.03;68.49;100844.84;5094834;27;45344;-78
2022/12/16 02:38:46;;;;;;;;;35.50;25.00;;;;;-1.05;68.27;100848.22;5096918;27;45287;-78
2022/12/16 02:41:21;;;;;;;;;31.75;24.00;;;;;-1.10;68.21;100848.13;5091198;27;45482;-77
2022/12/16 02:43:51;;;;;;;;;39.75;24.00;;;;;-1.10;68.77;100852.38;5058531;28;46603;-77
2022/12/16 02:46:17;;;;;;;;;37.00;25.00;;;;;-1.09;68.69;100861.78;5058435;28;45845;-77
2022/12/16 02:48:42;;;;;;;;;26.50;20.75;;;;;-1.07;68.93;100862.66;5058720;28;45391;-77
2022/12/16 02:51:08;;;;;;;;;38.50;23.75;;;;;-1.06;68.67;100859.25;5067859;28;67861;-77
2022/12/16 02:53:37;;;;;;;;;42.00;23.25;;;;;-1.05;69.07;100863.56;5040368;28;66756;-76
2022/12/16 02:56:10;;;;;;;;;41.75;24.50;;;;;-1.06;69.17;100865.25;5058157;28;46051;-77
2022/12/16 02:59:04;;;;;;;;;39.50;26.00;;;;;-1.05;69.50;100858.44;5058505;28;45426;-77
2022/12/16 03:01:45;;;;;;;;;39.25;27.50;;;;;-1.04;69.48;100863.59;5058272;28;45472;-77
2022/12/16 03:04:19;;;;;;;;;34.00;24.75;;;;;-1.05;69.41;100869.53;5058092;28;46279;-78
2022/12/16 03:06:48;;;;;;;;;32.25;23.50;;;;;-1.03;69.75;100864.44;5057868;28;46072;-77
2022/12/16 03:09:16;;;;;;;;;31.50;28.25;;;;;-1.03;69.15;100867.00;5076464;28;45363;-77
2022/12/16 03:11:43;;;;;;;;;37.75;30.50;;;;;-1.04;69.69;100865.25;5058248;28;45484;-77
2022/12/16 03:14:14;;;;;;;;;29.50;26.50;;;;;-1.04;69.86;100866.16;5057129;28;71286;-77
2022/12/16 03:16:41;;;;;;;;;32.50;25.00;;;;;-1.02;70.61;100863.63;5057797;28;45394;-76
2022/12/16 03:19:08;;;;;;;;;42.00;25.00;;;;;-0.99;70.31;100873.88;5076232;28;45350;-77
2022/12/16 03:21:39;;;;;;;;;34.25;29.00;;;;;-0.97;70.47;100872.22;5057777;28;45412;-78
2022/12/16 03:24:07;;;;;;;;;35.25;28.00;;;;;-0.94;70.18;100871.44;5057966;28;45401;-77
2022/12/16 03:26:57;;;;;;;;;35.00;26.25;;;;;-0.91;70.27;100876.59;5057924;28;46031;-77
2022/12/16 03:29:44;;;;;;;;;37.00;27.00;;;;;-0.91;70.44;100884.25;5076143;28;45241;-77
2022/12/16 03:32:26;;;;;;;;;29.00;20.00;;;;;-0.91;70.20;100887.69;5057923;28;45386;-77
2022/12/16 03:34:58;;;;;;;;;32.00;23.00;;;;;-0.93;70.65;100889.34;5075802;28;46405;-77
2022/12/16 03:37:27;;;;;;;;;38.00;24.50;;;;;-0.92;70.58;100892.78;5057470;28;46154;-77
2022/12/16 03:39:55;;;;;;;;;40.25;25.50;;;;;-0.89;70.48;100895.38;5057740;28;45380;-77
2022/12/16 03:42:21;;;;;;;;;35.75;27.75;;;;;-0.88;70.59;100892.84;5057642;28;45424;-77
2022/12/16 03:44:46;;;;;;;;;34.00;21.25;;;;;-0.89;70.81;100892.81;5074942;28;66413;-77
2022/12/16 03:47:12;;;;;;;;;28.75;23.25;;;;;-0.88;70.75;100899.66;5056815;28;69640;-77
2022/12/16 03:49:38;;;;;;;;;33.75;21.50;;;;;-0.85;70.63;100894.63;5061536;27;45458;-78
2022/12/16 03:52:04;;;;;;;;;31.25;22.75;;;;;-0.83;71.11;100888.72;5077763;27;45513;-77
2022/12/16 03:54:29;;;;;;;;;33.50;22.25;;;;;-0.80;70.77;100893.00;5077834;27;45573;-77
2022/12/16 03:56:54;;;;;;;;;27.00;18.50;;;;;-0.78;70.95;100883.66;5095099;27;64568;-77
2022/12/16 03:59:20;;;;;;;;;28.25;22.50;;;;;-0.79;70.69;100895.59;5096292;27;45702;-77
2022/12/16 04:01:45;;;;;;;;;29.00;18.00;;;;;-0.78;70.84;100896.44;5095348;27;63891;-77
2022/12/16 04:04:11;;;;;;;;;26.75;22.25;;;;;-0.77;70.54;100899.88;5098131;27;69033;-77
2022/12/16 04:06:36;;;;;;;;;21.25;20.50;;;;;-0.79;70.54;100905.81;5080545;27;63133;-77
2022/12/16 04:09:02;;;;;;;;;21.75;16.75;;;;;-0.79;70.50;100912.63;5098987;27;61849;-77
2022/12/16 04:25:27;;;;;;;;;36.25;25.50;;;;;-0.75;71.31;100932.31;4982547;28;45474;-77
2022/12/16 04:27:52;;;;;;;;;31.00;22.50;;;;;-0.74;71.53;100931.50;4979773;28;45464;-77
2022/12/16 04:30:19;;;;;;;;;27.50;19.25;;;;;-0.77;71.71;100931.41;4996484;28;45504;-77
